Time;durP1;ratioP1;P1;durP2;ratioP2;P2;SDS_P1;SDS_P2;PMS_P1;PMS_P2;Temp;Humidity;BMP_temperature;BMP_pressure;BME280_temperature;BME280_humidity;BME280_pressure;Samples;Min_cycle;Max_cycle;Signal;HPM_P1;HPM_P2
2022/09/18 00:01:33;;;;;;;1.50;0.50;;;;;;;24.87;33.73;102032.00;5074434;28;20028;-52
2022/09/18 00:04:03;;;;;;;2.17;0.70;;;;;;;24.87;33.41;102037.25;5074533;28;20438;-50
2022/09/18 00:06:34;;;;;;;1.48;0.57;;;;;;;24.88;33.39;102028.53;5074491;28;20434;-50
2022/09/18 00:09:04;;;;;;;4.50;0.50;;;;;;;24.85;33.46;102038.03;5049247;28;20031;-48
2022/09/18 00:11:38;;;;;;;0.50;0.20;;;;;;;24.81;33.49;102033.59;5071537;28;20031;-50
2022/09/18 00:14:09;;;;;;;1.63;0.60;;;;;;;24.79;33.71;102038.78;5070362;28;20050;-52
2022/09/18 00:16:38;;;;;;;1.02;0.43;;;;;;;24.80;33.75;102048.44;5070427;28;20028;-51
2022/09/18 00:19:07;;;;;;;3.13;0.77;;;;;;;24.81;33.33;102047.59;5070104;28;20031;-51
2022/09/18 00:21:36;;;;;;;0.98;0.30;;;;;;;24.83;33.69;102039.75;5070044;28;20031;-48
2022/09/18 00:24:05;;;;;;;0.60;0.28;;;;;;;24.78;33.76;102033.50;5072824;28;20078;-52
2022/09/18 00:26:34;;;;;;;2.10;0.85;;;;;;;24.77;33.21;102029.97;5072908;28;20024;-49
2022/09/18 00:29:03;;;;;;;2.80;0.47;;;;;;;24.72;33.32;102028.97;5072726;28;20043;-51
2022/09/18 00:31:34;;;;;;;0.40;0.30;;;;;;;24.76;33.64;102040.44;5072829;28;20106;-48
2022/09/18 00:34:06;;;;;;;0.63;0.50;;;;;;;24.77;33.41;102034.34;5065872;28;20024;-50
2022/09/18 00:36:35;;;;;;;0.85;0.40;;;;;;;24.72;33.26;102028.97;5065621;28;20900;-51
2022/09/18 00:39:04;;;;;;;0.63;0.30;;;;;;;24.71;33.47;102035.06;5047733;28;20024;-49
2022/09/18 00:41:36;;;;;;;0.50;0.40;;;;;;;24.69;33.29;102034.97;5071454;28;20480;-49
2022/09/18 00:44:29;;;;;;;0.28;0.20;;;;;;;24.67;33.72;102027.94;5069697;28;20487;-48
2022/09/18 00:47:20;;;;;;;2.70;0.40;;;;;;;24.67;33.40;102034.06;5069434;28;20040;-48
2022/09/18 00:50:03;;;;;;;0.65;0.40;;;;;;;24.64;33.24;102023.50;5055109;28;20471;-51
2022/09/18 00:52:44;;;;;;;2.47;0.40;;;;;;;24.67;33.27;102027.94;5070170;28;20036;-49
2022/09/18 00:55:14;;;;;;;1.35;0.52;;;;;;;24.63;33.30;102021.72;5058164;28;20036;-52
2022/09/18 00:57:47;;;;;;;0.88;0.40;;;;;;;24.59;33.46;102025.09;5058298;28;20028;-50
2022/09/18 01:00:16;;;;;;;0.50;0.30;;;;;;;24.57;33.77;102019.78;5052551;28;20497;-48
2022/09/18 01:02:47;;;;;;;1.08;0.38;;;;;;;24.58;33.41;102012.81;5075485;28;20028;-51
2022/09/18 01:05:19;;;;;;;0.70;0.40;;;;;;;24.53;33.60;102022.28;5074712;28;20031;-48
2022/09/18 01:07:49;;;;;;;7.53;0.50;;;;;;;24.54;33.56;102021.44;5070502;28;20028;-49
2022/09/18 01:10:38;;;;;;;1.33;0.20;;;;;;;24.48;33.76;102016.94;5068393;28;20066;-52
2022/09/18 01:13:15;;;;;;;0.52;0.30;;;;;;;24.47;33.23;102007.28;5065345;28;20036;-51
2022/09/18 01:16:04;;;;;;;1.05;0.40;;;;;;;24.47;33.72;102017.78;5069831;28;20062;-50
2022/09/18 01:18:41;;;;;;;0.98;0.35;;;;;;;24.48;33.66;102008.19;5068626;28;20047;-48
2022/09/18 01:21:13;;;;;;;0.93;0.40;;;;;;;24.43;33.22;102014.19;5056474;28;20067;-50
2022/09/18 01:24:10;;;;;;;1.52;0.50;;;;;;;24.42;33.56;102009.78;5055859;28;20457;-50
2022/09/18 01:27:06;;;;;;;0.47;0.43;;;;;;;24.43;33.53;102014.19;5043189;28;20331;-50
2022/09/18 01:30:00;;;;;;;2.05;0.52;;;;;;;24.48;33.44;102016.06;5050885;28;20044;-50
2022/09/18 01:32:38;;;;;;;0.90;0.30;;;;;;;24.43;33.30;102005.41;5064984;28;20040;-50
2022/09/18 01:35:15;;;;;;;2.28;0.35;;;;;;;24.38;33.84;102010.53;5050814;28;20093;-50
2022/09/18 01:37:53;;;;;;;0.50;0.28;;;;;;;24.34;33.88;102013.03;5051538;28;20117;-47
2022/09/18 01:40:25;;;;;;;0.85;0.30;;;;;;;24.36;33.87;102006.09;5055193;28;20055;-48
2022/09/18 01:42:56;;;;;;;0.88;0.40;;;;;;;24.35;34.11;102010.44;5073584;28;20642;-48
2022/09/18 01:45:29;;;;;;;1.33;0.40;;;;;;;24.27;34.10;102007.63;5055860;28;20040;-48
2022/09/18 01:48:01;;;;;;;2.10;0.50;;;;;;;24.26;34.04;101999.72;5054880;28;20064;-52
2022/09/18 01:50:33;;;;;;;1.77;0.32;;;;;;;24.21;34.47;102003.94;5052883;28;20025;-48
2022/09/18 01:53:08;;;;;;;1.25;0.28;;;;;;;24.23;34.10;101995.28;5058002;28;20032;-50
2022/09/18 01:55:37;;;;;;;0.50;0.30;;;;;;;24.22;34.21;101990.88;5068314;28;20032;-48
2022/09/18 01:58:16;;;;;;;0.73;0.40;;;;;;;24.26;34.41;102008.44;5056263;28;20035;-50
2022/09/18 02:00:48;;;;;;;0.55;0.20;;;;;;;24.27;34.30;102005.00;5076000;28;20060;-48
2022/09/18 02:03:23;;;;;;;1.25;0.30;;;;;;;24.28;34.15;102000.66;5067429;28;20580;-50
2022/09/18 02:05:56;;;;;;;1.23;0.40;;;;;;;24.25;34.58;102000.56;5073552;28;20035;-51
2022/09/18 02:08:32;;;;;;;0.47;0.30;;;;;;;24.23;34.60;102002.25;5060502;28;20479;-49
2022/09/18 02:11:05;;;;;;;2.95;0.88;;;;;;;24.20;34.55;101994.28;5073568;28;20391;-48
2022/09/18 02:13:39;;;;;;;1.38;0.35;;;;;;;24.16;34.67;101995.94;5076907;28;20031;-51
2022/09/18 02:16:12;;;;;;;0.82;0.40;;;;;;;24.21;34.45;101996.06;5073174;28;20028;-49
2022/09/18 02:18:44;;;;;;;3.55;0.40;;;;;;;24.10;34.50;101975.69;5069124;28;20035;-51
2022/09/18 02:21:19;;;;;;;0.55;0.32;;;;;;;24.19;34.66;101985.53;5068745;28;20028;-49
2022/09/18 02:23:48;;;;;;;0.80;0.35;;;;;;;24.22;34.59;101993.50;5079315;28;20056;-47
2022/09/18 02:26:18;;;;;;;1.00;0.40;;;;;;;24.21;34.63;101990.81;5072416;28;20078;-49
2022/09/18 02:28:48;;;;;;;0.65;0.30;;;;;;;24.22;34.70;102000.47;5056439;28;20052;-47
2022/09/18 02:31:20;;;;;;;0.75;0.35;;;;;;;24.16;34.52;101988.06;5059373;28;20888;-49
2022/09/18 02:33:48;;;;;;;0.77;0.25;;;;;;;24.16;34.86;101990.69;5074148;28;20086;-50
2022/09/18 02:36:44;;;;;;;0.93;0.20;;;;;;;24.19;34.64;102000.38;5060046;28;20422;-50
2022/09/18 02:39:20;;;;;;;1.25;0.40;;;;;;;24.19;34.53;102001.28;5062581;28;20036;-47
2022/09/18 02:42:01;;;;;;;0.40;0.30;;;;;;;24.14;34.56;101995.00;5054427;28;20036;-50
2022/09/18 02:44:59;;;;;;;0.52;0.30;;;;;;;24.15;34.55;101999.41;5072251;28;20039;-49
2022/09/18 02:47:28;;;;;;;2.75;0.40;;;;;;;24.18;34.90;102001.22;5073179;28;20031;-48
2022/09/18 02:50:01;;;;;;;0.20;0.15;;;;;;;24.17;34.84;101994.19;5077158;28;20517;-49
2022/09/18 02:52:34;;;;;;;0.80;0.43;;;;;;;24.12;34.95;101987.13;5054468;28;20085;-50
2022/09/18 02:55:15;;;;;;;1.48;0.38;;;;;;;24.11;34.88;101985.34;5070152;28;20102;-47
2022/09/18 02:57:52;;;;;;;0.60;0.25;;;;;;;24.06;35.15;101981.69;5076003;28;20387;-50
2022/09/18 03:00:21;;;;;;;0.30;0.28;;;;;;;24.06;34.87;101981.69;5071936;28;20100;-47
2022/09/18 03:02:50;;;;;;;0.82;0.40;;;;;;;24.07;34.94;101975.59;5056562;28;20028;-49
2022/09/18 03:05:19;;;;;;;0.47;0.30;;;;;;;23.99;34.94;101956.16;5073950;28;20033;-50
2022/09/18 03:07:48;;;;;;;0.52;0.30;;;;;;;24.08;34.83;101976.47;5072453;28;20082;-48
2022/09/18 03:10:16;;;;;;;0.50;0.20;;;;;;;24.10;34.99;101972.16;5056147;28;20060;-50
2022/09/18 03:12:45;;;;;;;0.60;0.22;;;;;;;24.11;34.83;101966.97;5067254;28;20028;-46
2022/09/18 03:15:13;;;;;;;0.73;0.30;;;;;;;24.11;34.89;101966.97;5067460;28;20032;-48
2022/09/18 03:17:41;;;;;;;0.25;0.25;;;;;;;24.07;35.02;101965.09;5053759;28;20020;-51
2022/09/18 03:20:10;;;;;;;0.30;0.20;;;;;;;24.07;34.68;101957.25;5071398;28;20112;-47
2022/09/18 03:22:38;;;;;;;1.90;0.30;;;;;;;24.08;34.73;101961.66;5071512;28;20122;-47
2022/09/18 03:25:08;;;;;;;0.30;0.30;;;;;;;24.06;35.04;101955.47;5071290;28;20034;-46
2022/09/18 03:27:36;;;;;;;0.40;0.20;;;;;;;24.09;34.73;101959.91;5071974;28;20040;-46
2022/09/18 03:30:06;;;;;;;0.40;0.40;;;;;;;24.03;34.91;101962.38;5075324;28;20475;-48
2022/09/18 03:32:34;;;;;;;0.43;0.22;;;;;;;24.04;34.65;101958.91;5071443;28;20025;-47
2022/09/18 03:35:03;;;;;;;1.48;0.88;;;;;;;24.03;34.81;101962.38;5074893;28;20071;-46
2022/09/18 03:37:31;;;;;;;0.20;0.10;;;;;;;24.03;35.16;101959.75;5074583;28;20056;-46
2022/09/18 03:39:59;;;;;;;0.30;0.20;;;;;;;24.04;34.88;101969.38;5068157;28;20028;-48
2022/09/18 03:42:29;;;;;;;0.30;0.10;;;;;;;23.96;35.01;101956.03;5068508;28;20029;-47
2022/09/18 03:44:57;;;;;;;0.65;0.20;;;;;;;23.96;35.31;101956.94;5070888;28;20068;-46
2022/09/18 03:47:26;;;;;;;1.77;0.40;;;;;;;23.95;34.80;101955.13;5071307;28;20031;-48
2022/09/18 03:49:55;;;;;;;0.20;0.20;;;;;;;24.02;35.10;101960.59;5075300;28;20125;-49
2022/09/18 03:52:23;;;;;;;0.15;0.13;;;;;;;24.01;34.75;101957.06;5075465;28;20024;-46
2022/09/18 03:54:53;;;;;;;1.58;0.40;;;;;;;24.02;35.18;101965.81;5075763;28;20050;-51
2022/09/18 03:57:21;;;;;;;0.10;0.10;;;;;;;24.02;34.69;101957.97;5075062;28;20028;-47
2022/09/18 03:59:50;;;;;;;0.20;0.20;;;;;;;23.99;35.16;101957.88;5047137;28;21296;-49
2022/09/18 04:02:18;;;;;;;0.20;0.20;;;;;;;23.94;34.82;101962.97;5068688;28;20391;-47
2022/09/18 04:04:47;;;;;;;0.55;0.30;;;;;;;23.97;35.18;101963.09;5070171;28;20115;-46
2022/09/18 04:07:17;;;;;;;0.85;0.20;;;;;;;23.94;34.86;101962.97;5070666;28;20036;-49
2022/09/18 04:09:45;;;;;;;0.98;0.20;;;;;;;23.98;35.09;101962.25;5070787;28;20051;-54
2022/09/18 04:12:14;;;;;;;1.10;0.30;;;;;;;23.86;35.08;101943.47;5052540;28;20063;-49
2022/09/18 04:14:42;;;;;;;0.63;0.15;;;;;;;23.99;34.78;101963.13;5070554;28;20483;-50
2022/09/18 04:17:11;;;;;;;0.40;0.20;;;;;;;23.85;34.99;101933.84;5057943;28;20513;-49
2022/09/18 04:19:39;;;;;;;1.92;0.32;;;;;;;23.97;34.65;101960.47;5076259;28;20028;-48
2022/09/18 04:22:08;;;;;;;0.10;0.10;;;;;;;23.95;34.85;101969.97;5076113;28;20028;-47
2022/09/18 04:24:36;;;;;;;0.40;0.20;;;;;;;23.91;34.86;101958.50;5076292;28;20038;-49
2022/09/18 04:27:04;;;;;;;0.10;0.10;;;;;;;23.79;35.25;101940.72;5069564;28;20035;-47
2022/09/18 04:29:33;;;;;;;0.98;0.30;;;;;;;23.90;34.76;101950.59;5048447;28;20044;-53
2022/09/18 04:32:02;;;;;;;0.30;0.20;;;;;;;23.89;35.19;101967.16;5070775;28;20021;-49
2022/09/18 04:34:30;;;;;;;0.82;0.10;;;;;;;23.85;35.31;101960.94;5064108;28;20075;-48
2022/09/18 04:36:59;;;;;;;0.40;0.20;;;;;;;23.88;35.25;101961.03;5072887;28;20429;-47
2022/09/18 04:39:28;;;;;;;2.75;0.20;;;;;;;23.86;34.87;101954.88;5070532;28;20031;-51
2022/09/18 04:41:56;;;;;;;0.40;0.20;;;;;;;23.79;35.42;101955.53;5070380;28;20039;-49
2022/09/18 04:44:25;;;;;;;0.15;0.10;;;;;;;23.78;35.06;101958.97;5070174;28;20391;-46
2022/09/18 04:46:53;;;;;;;0.47;0.40;;;;;;;23.84;35.36;101964.41;5070103;28;20035;-48
2022/09/18 04:49:22;;;;;;;0.20;0.10;;;;;;;23.82;35.10;101963.47;5070899;28;20020;-47
2022/09/18 04:51:51;;;;;;;0.70;0.30;;;;;;;23.82;35.26;101963.47;5070531;28;20043;-48
2022/09/18 04:54:19;;;;;;;0.28;0.13;;;;;;;23.83;35.24;101968.75;5052518;28;20033;-47
2022/09/18 04:56:48;;;;;;;0.30;0.20;;;;;;;23.80;35.10;101967.78;5063995;28;20044;-46
2022/09/18 04:59:16;;;;;;;0.40;0.20;;;;;;;23.77;34.85;101963.34;5070909;28;20035;-48
2022/09/18 05:01:45;;;;;;;0.10;0.10;;;;;;;23.69;35.01;101956.97;5064356;28;20142;-47
2022/09/18 05:04:14;;;;;;;0.10;0.10;;;;;;;23.77;35.13;101976.44;5070831;28;20036;-47
2022/09/18 05:06:42;;;;;;;0.38;0.20;;;;;;;23.79;34.92;101980.00;5067791;28;20028;-48
2022/09/18 05:09:11;;;;;;;0.28;0.20;;;;;;;23.79;35.08;101986.97;5069913;28;20039;-50
2022/09/18 05:11:39;;;;;;;0.68;0.20;;;;;;;23.72;35.04;101970.16;5070863;28;20054;-47
2022/09/18 05:14:08;;;;;;;0.93;0.30;;;;;;;23.76;35.04;101972.06;5070492;28;20507;-49
2022/09/18 05:16:37;;;;;;;0.28;0.13;;;;;;;23.75;35.05;101980.75;5071473;28;20040;-48
2022/09/18 05:19:05;;;;;;;0.52;0.22;;;;;;;23.71;34.81;101983.25;5071639;28;21186;-49
2022/09/18 05:21:34;;;;;;;0.57;0.20;;;;;;;23.63;35.05;101975.16;5064566;28;20036;-46
2022/09/18 05:24:02;;;;;;;0.73;0.13;;;;;;;23.66;35.25;101985.72;5069353;28;20385;-48
2022/09/18 05:26:31;;;;;;;0.75;0.15;;;;;;;23.62;35.36;101979.47;5075316;28;20039;-46
2022/09/18 05:28:59;;;;;;;0.95;0.30;;;;;;;23.72;35.39;101985.03;5069479;28;20036;-49
2022/09/18 05:31:28;;;;;;;0.63;0.20;;;;;;;23.66;34.95;101981.34;5069368;28;20035;-46
2022/09/18 05:33:57;;;;;;;0.22;0.15;;;;;;;23.71;35.06;101978.00;5065215;28;20035;-47
2022/09/18 05:36:25;;;;;;;1.30;0.20;;;;;;;23.70;35.35;101982.34;5072083;28;20123;-47
2022/09/18 05:38:54;;;;;;;0.82;0.30;;;;;;;23.63;35.15;101980.38;5072633;28;20032;-50
2022/09/18 05:41:22;;;;;;;0.50;0.20;;;;;;;23.72;34.90;101970.16;5072403;28;20436;-47
2022/09/18 05:43:51;;;;;;;0.38;0.28;;;;;;;23.74;35.02;101986.81;5072181;28;20112;-51
2022/09/18 05:46:19;;;;;;;3.22;0.20;;;;;;;23.67;34.87;101982.22;5065952;28;20020;-46
2022/09/18 05:48:49;;;;;;;1.20;0.17;;;;;;;23.67;34.87;101974.38;5065316;28;20342;-47
2022/09/18 05:51:18;;;;;;;0.40;0.30;;;;;;;23.67;35.26;101982.22;5069024;28;20032;-46
2022/09/18 05:53:47;;;;;;;0.57;0.30;;;;;;;23.59;34.99;101978.50;5069295;28;20038;-47
2022/09/18 05:56:16;;;;;;;0.35;0.17;;;;;;;23.62;34.86;101981.22;5072989;28;20078;-46
2022/09/18 05:58:44;;;;;;;0.30;0.20;;;;;;;23.58;34.91;101988.06;5045013;28;20480;-47
2022/09/18 06:01:13;;;;;;;1.95;0.40;;;;;;;23.64;34.99;101984.78;5069404;28;20039;-47
2022/09/18 06:03:41;;;;;;;0.60;0.20;;;;;;;23.63;35.03;101994.34;5073369;28;20438;-47
2022/09/18 06:06:10;;;;;;;0.57;0.30;;;;;;;23.66;35.09;101993.59;5071126;28;20571;-47
2022/09/18 06:08:38;;;;;;;2.70;0.35;;;;;;;23.65;34.82;101995.28;5051115;28;20043;-50
2022/09/18 06:11:06;;;;;;;0.40;0.13;;;;;;;23.66;35.00;102001.44;5071325;28;20702;-50
2022/09/18 06:13:35;;;;;;;2.03;0.45;;;;;;;23.66;35.19;102004.94;5066640;28;20041;-48
2022/09/18 06:16:03;;;;;;;0.82;0.30;;;;;;;23.64;34.93;102004.00;5069308;28;20056;-46
2022/09/18 06:18:32;;;;;;;0.30;0.30;;;;;;;23.61;35.00;102003.91;5073839;28;20028;-47
2022/09/18 06:21:00;;;;;;;0.82;0.30;;;;;;;23.65;34.82;102002.28;5067202;28;20324;-48
2022/09/18 06:23:28;;;;;;;2.28;0.20;;;;;;;23.69;35.03;102017.22;5073610;28;20036;-47
2022/09/18 06:25:58;;;;;;;1.90;0.30;;;;;;;23.66;35.29;102020.66;5075318;28;20528;-48
2022/09/18 06:28:26;;;;;;;1.40;0.40;;;;;;;23.65;35.13;102012.75;5071985;28;20594;-46
2022/09/18 06:30:54;;;;;;;2.92;0.50;;;;;;;23.70;34.77;102026.88;5072880;28;20032;-47
2022/09/18 06:33:22;;;;;;;5.63;0.38;;;;;;;23.73;35.06;102023.47;5072919;28;20407;-48
2022/09/18 06:35:51;;;;;;;3.55;0.40;;;;;;;23.74;34.81;102023.50;5072577;28;20492;-48
2022/09/18 06:38:19;;;;;;;5.13;1.27;;;;;;;23.82;34.74;102028.97;5078015;28;20068;-47
2022/09/18 06:40:49;;;;;;;1.35;0.50;;;;;;;23.77;34.92;102026.22;5072141;28;20067;-48
2022/09/18 06:43:18;;;;;;;1.77;0.60;;;;;;;23.80;34.75;102026.34;5071633;28;20024;-47
2022/09/18 06:45:57;;;;;;;1.48;0.47;;;;;;;23.81;35.08;102029.81;5055848;28;20078;-52
2022/09/18 06:48:28;;;;;;;5.55;0.50;;;;;;;23.89;34.86;102030.06;5076851;28;20034;-47
2022/09/18 06:50:58;;;;;;;1.33;0.70;;;;;;;23.95;34.78;102031.13;5076570;28;20398;-47
2022/09/18 06:53:27;;;;;;;3.70;0.68;;;;;;;24.00;34.72;102033.03;5069019;28;20060;-49
2022/09/18 06:56:00;;;;;;;3.47;0.95;;;;;;;24.02;34.46;102024.38;5070470;28;20118;-49
2022/09/18 06:58:29;;;;;;;1.85;0.73;;;;;;;24.06;34.31;102028.88;5076043;28;20032;-49
2022/09/18 07:01:00;;;;;;;5.00;0.60;;;;;;;24.11;34.63;102037.75;5073453;28;20035;-47
2022/09/18 07:03:28;;;;;;;1.85;0.60;;;;;;;24.11;34.72;102040.38;5071901;28;20509;-47
2022/09/18 07:05:57;;;;;;;3.22;0.68;;;;;;;24.19;34.34;102044.94;5075794;28;20111;-50
2022/09/18 07:08:25;;;;;;;2.22;0.93;;;;;;;24.18;34.41;102043.16;5073338;28;20082;-47
2022/09/18 07:10:54;;;;;;;2.53;0.88;;;;;;;24.20;34.58;102041.47;5075454;28;20539;-47
2022/09/18 07:13:23;;;;;;;3.28;0.63;;;;;;;24.20;34.65;102046.72;5075822;28;20036;-51
2022/09/18 07:15:51;;;;;;;2.03;0.70;;;;;;;24.22;34.79;102039.78;5075632;28;20036;-47
2022/09/18 07:18:19;;;;;;;2.95;0.80;;;;;;;24.27;35.05;102044.31;5069187;28;20024;-48
2022/09/18 07:20:48;;;;;;;2.80;0.70;;;;;;;24.32;35.02;102040.94;5074144;28;20055;-48
2022/09/18 07:23:16;;;;;;;1.85;0.60;;;;;;;24.35;35.08;102052.41;5071498;28;20083;-48
2022/09/18 07:25:45;;;;;;;4.22;1.00;;;;;;;24.38;34.89;102051.63;5071534;28;20055;-48
2022/09/18 07:28:13;;;;;;;3.15;0.98;;;;;;;24.41;35.04;102047.34;5071177;28;20131;-46
2022/09/18 07:30:42;;;;;;;3.20;0.60;;;;;;;24.44;34.82;102051.78;5072229;28;20039;-48
2022/09/18 07:33:10;;;;;;;2.75;0.93;;;;;;;24.49;34.97;102051.94;5076166;28;20111;-46
2022/09/18 07:35:39;;;;;;;4.60;0.95;;;;;;;24.46;35.13;102046.59;5073564;28;20144;-50
2022/09/18 07:38:08;;;;;;;3.30;0.77;;;;;;;24.48;35.14;102055.41;5076393;28;20030;-47
2022/09/18 07:40:35;;;;;;;1.65;0.55;;;;;;;24.48;35.00;102047.53;5077088;28;20084;-49
2022/09/18 07:43:06;;;;;;;8.20;0.65;;;;;;;24.49;34.97;102051.94;5076543;28;20039;-50
2022/09/18 07:45:35;;;;;;;1.20;0.60;;;;;;;24.48;34.60;102037.91;5070088;28;20037;-47
2022/09/18 07:48:05;;;;;;;1.67;0.57;;;;;;;24.49;34.48;102042.31;5073332;28;20403;-49
2022/09/18 07:50:34;;;;;;;5.85;0.60;;;;;;;24.51;34.61;102043.25;5071053;28;20028;-47
2022/09/18 07:53:04;;;;;;;1.40;0.70;;;;;;;24.51;34.37;102038.00;5071250;28;20123;-48
2022/09/18 07:55:35;;;;;;;2.15;0.80;;;;;;;24.54;34.31;102045.97;5070552;28;20484;-48
2022/09/18 07:58:06;;;;;;;1.35;0.70;;;;;;;24.49;34.61;102037.06;5058677;28;20086;-47
2022/09/18 08:00:36;;;;;;;2.05;0.75;;;;;;;24.58;34.45;102050.44;5071291;28;20089;-46
2022/09/18 08:03:10;;;;;;;2.70;0.50;;;;;;;24.56;34.11;102048.63;5075810;28;20038;-48
2022/09/18 08:05:40;;;;;;;1.83;0.68;;;;;;;24.60;33.99;102049.59;5082055;28;20024;-48
2022/09/18 08:08:11;;;;;;;3.53;0.63;;;;;;;24.64;34.25;102057.59;5068628;28;20476;-47
2022/09/18 08:10:40;;;;;;;5.00;0.50;;;;;;;24.61;34.01;102048.75;5062997;28;20028;-49
2022/09/18 08:13:08;;;;;;;1.60;0.47;;;;;;;24.65;34.25;102055.84;5060677;28;20028;-49
2022/09/18 08:15:38;;;;;;;0.93;0.45;;;;;;;24.58;34.42;102046.94;5060922;28;20036;-49
2022/09/18 08:18:07;;;;;;;0.68;0.40;;;;;;;24.71;34.17;102059.56;5060744;28;20075;-48
2022/09/18 08:20:35;;;;;;;0.75;0.55;;;;;;;24.71;33.94;102059.56;5058530;28;20036;-47
2022/09/18 08:23:04;;;;;;;1.98;0.55;;;;;;;24.67;34.12;102054.16;5061349;28;20032;-49
2022/09/18 08:25:32;;;;;;;2.08;0.50;;;;;;;24.79;34.21;102070.28;5062688;28;20035;-49
2022/09/18 08:28:01;;;;;;;2.47;0.52;;;;;;;24.82;34.04;102075.59;5071602;28;20452;-47
2022/09/18 08:30:29;;;;;;;1.02;0.40;;;;;;;24.83;33.86;102071.22;5069340;28;21130;-47
2022/09/18 08:33:07;;;;;;;0.70;0.30;;;;;;;24.81;34.20;102071.19;5068373;28;20032;-48
2022/09/18 08:35:36;;;;;;;2.30;0.50;;;;;;;24.86;33.98;102074.84;5069084;28;20388;-49
2022/09/18 08:38:04;;;;;;;2.08;0.50;;;;;;;24.87;33.78;102070.47;5069234;28;20029;-48
2022/09/18 08:40:54;;;;;;;5.95;0.80;;;;;;;24.92;33.82;102073.22;5069477;28;20089;-52
2022/09/18 08:43:50;;;;;;;1.98;0.50;;;;;;;24.94;33.67;102068.91;5060217;28;20043;-48
2022/09/18 08:46:42;;;;;;;0.95;0.50;;;;;;;24.90;33.96;102072.31;5060713;28;20037;-50
2022/09/18 08:49:48;;;;;;;1.42;0.50;;;;;;;24.97;34.04;102074.22;5066946;28;20443;-51
2022/09/18 08:52:16;;;;;;;;;;;;;;;25.02;33.95;102084.00;5069994;28;20086;-48
2022/09/18 08:54:50;;;;;;;2.88;0.75;;;;;;;25.08;33.57;102088.53;5049581;28;20030;-47
2022/09/18 08:57:36;;;;;;;2.35;0.43;;;;;;;25.06;33.76;102082.38;5070161;28;20025;-46
2022/09/18 09:00:27;;;;;;;1.33;0.43;;;;;;;25.09;33.53;102081.56;5067013;28;20025;-51
2022/09/18 09:03:03;;;;;;;3.15;0.50;;;;;;;25.10;33.59;102075.44;5065691;28;20025;-47
2022/09/18 09:05:41;;;;;;;4.28;0.60;;;;;;;25.12;33.56;102082.50;5068277;28;20521;-48
2022/09/18 09:08:30;;;;;;;1.20;0.55;;;;;;;25.13;33.57;102084.28;5049253;28;20032;-46
2022/09/18 09:11:17;;;;;;;5.05;0.63;;;;;;;25.20;33.47;102084.47;5066038;28;20093;-47
2022/09/18 09:14:01;;;;;;;0.73;0.40;;;;;;;25.14;33.46;102077.31;5068703;28;20036;-48
2022/09/18 09:16:51;;;;;;;1.15;0.40;;;;;;;25.22;33.32;102088.00;5050175;28;20032;-47
2022/09/18 09:19:38;;;;;;;2.50;0.60;;;;;;;25.23;33.34;102081.91;5064903;28;20441;-51
2022/09/18 09:22:12;;;;;;;1.65;0.50;;;;;;;25.23;32.78;102082.78;5063595;28;20049;-48
2022/09/18 09:24:50;;;;;;;1.10;0.40;;;;;;;25.20;33.66;102079.22;5051511;28;20360;-50
2022/09/18 09:27:32;;;;;;;0.75;0.32;;;;;;;25.25;33.49;102080.19;5049173;28;20036;-50
2022/09/18 09:30:12;;;;;;;2.92;0.75;;;;;;;25.29;33.15;102077.69;5051822;28;20101;-50
2022/09/18 09:32:49;;;;;;;2.78;0.45;;;;;;;25.32;33.12;102077.75;5069137;28;20028;-47
2022/09/18 09:35:26;;;;;;;1.13;0.43;;;;;;;25.30;33.30;102079.47;5069178;28;20033;-47
2022/09/18 09:37:55;;;;;;;1.95;0.70;;;;;;;25.33;33.11;102076.91;5065371;28;20102;-51
2022/09/18 09:40:36;;;;;;;3.72;0.45;;;;;;;25.33;33.19;102083.91;5068366;28;20035;-49
2022/09/18 09:43:09;;;;;;;1.55;0.50;;;;;;;25.32;32.91;102075.13;5046516;28;20035;-49
2022/09/18 09:45:45;;;;;;;0.95;0.40;;;;;;;25.29;33.16;102072.44;5047627;28;20102;-50
2022/09/18 09:48:26;;;;;;;2.17;0.40;;;;;;;25.36;32.85;102073.50;5048262;28;20036;-49
2022/09/18 09:51:17;;;;;;;1.15;0.60;;;;;;;25.40;32.64;102072.69;5067597;28;20039;-48
2022/09/18 09:53:46;;;;;;;1.55;0.50;;;;;;;25.41;32.99;102078.84;5065937;28;20032;-48
2022/09/18 09:56:42;;;;;;;1.52;0.52;;;;;;;25.43;32.49;102085.06;5066637;28;20032;-48
2022/09/18 09:59:48;;;;;;;0.40;0.20;;;;;;;25.44;33.00;102077.22;5060601;28;20041;-47
2022/09/18 10:02:35;;;;;;;2.17;0.68;;;;;;;25.49;32.66;102079.94;5062836;28;20075;-51
2022/09/18 10:05:23;;;;;;;1.27;0.47;;;;;;;25.49;32.48;102082.56;5070040;28;20036;-48
2022/09/18 10:08:16;;;;;;;1.17;0.50;;;;;;;25.47;32.31;102082.53;5061943;28;20047;-49
2022/09/18 10:10:49;;;;;;;1.05;0.30;;;;;;;25.43;32.84;102070.16;5063213;28;20044;-47
2022/09/18 10:13:40;;;;;;;1.23;0.50;;;;;;;25.45;32.62;102080.75;5072138;28;20039;-51
2022/09/18 10:16:17;;;;;;;1.42;0.50;;;;;;;25.34;32.78;102078.69;5066194;28;20072;-49
2022/09/18 10:18:46;;;;;;;2.05;0.52;;;;;;;25.38;32.70;102077.03;5071212;28;20029;-47
2022/09/18 10:21:18;;;;;;;1.30;0.60;;;;;;;25.41;32.02;102077.09;5070299;28;20032;-47
2022/09/18 10:23:54;;;;;;;4.28;0.38;;;;;;;25.39;32.20;102067.41;5050203;28;21292;-51
2022/09/18 10:26:44;;;;;;;2.28;0.47;;;;;;;25.43;32.22;102064.06;5068332;28;20044;-51
2022/09/18 10:29:12;;;;;;;1.60;0.52;;;;;;;25.50;32.24;102072.97;5071009;28;20131;-48
2022/09/18 10:32:00;;;;;;;2.22;0.35;;;;;;;25.47;32.12;102072.03;5067016;28;20039;-48
2022/09/18 10:34:48;;;;;;;1.35;0.50;;;;;;;25.51;32.60;102069.50;5072321;28;20035;-48
2022/09/18 10:37:38;;;;;;;3.53;0.85;;;;;;;25.51;32.15;102067.72;5069838;28;20033;-45
2022/09/18 10:40:10;;;;;;;0.70;0.22;;;;;;;25.56;31.61;102067.88;5068031;28;20564;-49
2022/09/18 10:42:38;;;;;;;3.00;0.43;;;;;;;25.52;31.86;102063.38;5051984;28;20506;-47
2022/09/18 10:45:21;;;;;;;0.73;0.32;;;;;;;25.49;32.24;102064.19;5052697;28;20037;-50
2022/09/18 10:47:48;;;;;;;1.45;0.40;;;;;;;25.48;32.01;102063.31;5051223;28;20025;-49
2022/09/18 10:50:19;;;;;;;1.15;0.35;;;;;;;25.46;31.95;102070.25;5070674;28;20028;-47
2022/09/18 10:52:48;;;;;;;0.52;0.30;;;;;;;25.49;32.26;102072.06;5070080;28;20036;-48
2022/09/18 10:55:19;;;;;;;1.63;0.40;;;;;;;25.50;31.84;102068.59;5050019;28;20121;-48
2022/09/18 10:58:12;;;;;;;1.25;0.30;;;;;;;25.46;31.80;102067.63;5068760;28;20081;-50
2022/09/18 11:00:48;;;;;;;3.13;0.60;;;;;;;25.44;31.63;102052.69;5050765;28;20548;-48
2022/09/18 11:03:21;;;;;;;0.50;0.30;;;;;;;25.39;31.98;102046.41;5067263;28;20040;-48
2022/09/18 11:06:01;;;;;;;1.48;0.40;;;;;;;25.43;32.36;102067.53;5052500;28;20456;-47
2022/09/18 11:08:32;;;;;;;1.88;0.45;;;;;;;25.45;32.06;102059.72;5070557;28;20034;-48
2022/09/18 11:11:04;;;;;;;1.15;0.30;;;;;;;25.46;32.23;102056.25;5051565;28;20024;-48
2022/09/18 11:13:32;;;;;;;0.63;0.40;;;;;;;25.44;32.28;102055.31;5072690;28;20369;-48
2022/09/18 11:16:01;;;;;;;1.60;0.50;;;;;;;25.44;31.84;102052.69;5072861;28;20503;-49
2022/09/18 11:18:31;;;;;;;2.05;0.60;;;;;;;25.45;32.48;102059.72;5032057;28;20036;-48
2022/09/18 11:21:02;;;;;;;2.35;0.50;;;;;;;25.44;32.32;102050.94;5054908;28;20101;-47
2022/09/18 11:23:30;;;;;;;0.88;0.40;;;;;;;25.46;32.46;102048.38;5052238;28;20035;-48
2022/09/18 11:26:19;;;;;;;2.40;0.47;;;;;;;25.46;32.25;102048.38;5070726;28;20021;-50
2022/09/18 11:29:08;;;;;;;3.22;0.63;;;;;;;25.45;32.77;102046.59;5067775;28;20049;-51
2022/09/18 11:31:58;;;;;;;1.65;0.50;;;;;;;25.48;32.25;102046.66;5034607;28;20048;-48
2022/09/18 11:34:35;;;;;;;0.85;0.40;;;;;;;25.48;32.50;102044.03;5066547;28;20102;-48
2022/09/18 11:37:08;;;;;;;1.48;0.43;;;;;;;25.46;32.84;102037.84;5070900;28;20115;-52
2022/09/18 11:39:49;;;;;;;1.05;0.40;;;;;;;25.53;32.72;102045.00;5053331;28;20032;-52
2022/09/18 11:42:18;;;;;;;1.38;0.43;;;;;;;25.57;32.92;102036.34;5072215;28;20101;-49
2022/09/18 11:44:47;;;;;;;1.15;0.50;;;;;;;25.58;32.70;102035.50;5053602;28;20044;-50
2022/09/18 11:47:26;;;;;;;1.27;0.50;;;;;;;25.57;32.37;102033.72;5072015;28;20016;-50
2022/09/18 11:50:10;;;;;;;1.40;0.57;;;;;;;25.60;32.94;102033.81;5052097;28;20066;-51
2022/09/18 11:52:43;;;;;;;1.40;0.50;;;;;;;25.66;32.43;102032.16;5052331;28;20032;-50